sensor_id;sensor_type;location;lat;lon;timestamp;P1;durP1;ratioP1;P2;durP2;ratioP2
59824;SDS011;45703;50.898;6.054;2023-06-24T00:01:33;9.25;;;6.30;;
59824;SDS011;45703;50.898;6.054;2023-06-24T00:03:59;9.43;;;6.68;;
59824;SDS011;45703;50.898;6.054;2023-06-24T00:06:24;8.73;;;6.03;;
59824;SDS011;45703;50.898;6.054;2023-06-24T00:08:51;9.68;;;6.45;;
59824;SDS011;45703;50.898;6.054;2023-06-24T00:11:17;10.63;;;6.72;;
59824;SDS011;45703;50.898;6.054;2023-06-24T00:13:43;9.18;;;5.35;;
59824;SDS011;45703;50.898;6.054;2023-06-24T00:16:10;9.80;;;6.40;;
59824;SDS011;45703;50.898;6.054;2023-06-24T00:18:36;9.63;;;5.93;;
59824;SDS011;45703;50.898;6.054;2023-06-24T00:21:05;9.75;;;6.28;;
59824;SDS011;45703;50.898;6.054;2023-06-24T00:23:31;9.75;;;6.10;;
59824;SDS011;45703;50.898;6.054;2023-06-24T00:25:59;11.13;;;6.28;;
59824;SDS011;45703;50.898;6.054;2023-06-24T00:28:25;9.95;;;6.05;;
59824;SDS011;45703;50.898;6.054;2023-06-24T00:30:50;9.18;;;6.20;;
59824;SDS011;45703;50.898;6.054;2023-06-24T00:33:15;9.07;;;6.10;;
59824;SDS011;45703;50.898;6.054;2023-06-24T00:35:47;9.50;;;5.85;;
59824;SDS011;45703;50.898;6.054;2023-06-24T00:38:12;10.38;;;6.55;;
59824;SDS011;45703;50.898;6.054;2023-06-24T00:40:38;9.90;;;6.32;;
59824;SDS011;45703;50.898;6.054;2023-06-24T00:43:04;8.90;;;6.15;;
59824;SDS011;45703;50.898;6.054;2023-06-24T00:45:31;9.23;;;6.05;;
59824;SDS011;45703;50.898;6.054;2023-06-24T00:47:57;9.68;;;6.05;;
59824;SDS011;45703;50.898;6.054;2023-06-24T00:50:26;10.00;;;6.00;;
59824;SDS011;45703;50.898;6.054;2023-06-24T00:52:51;9.80;;;5.32;;
59824;SDS011;45703;50.898;6.054;2023-06-24T00:55:17;9.52;;;6.38;;
59824;SDS011;45703;50.898;6.054;2023-06-24T00:57:46;9.63;;;6.22;;
59824;SDS011;45703;50.898;6.054;2023-06-24T01:00:20;8.85;;;5.63;;
59824;SDS011;45703;50.898;6.054;2023-06-24T01:02:48;9.50;;;6.03;;
59824;SDS011;45703;50.898;6.054;2023-06-24T01:05:14;9.90;;;6.40;;
59824;SDS011;45703;50.898;6.054;2023-06-24T01:07:41;9.38;;;6.05;;
59824;SDS011;45703;50.898;6.054;2023-06-24T01:10:07;9.18;;;6.28;;
59824;SDS011;45703;50.898;6.054;2023-06-24T01:12:34;10.20;;;6.25;;
59824;SDS011;45703;50.898;6.054;2023-06-24T01:15:02;9.60;;;6.07;;
59824;SDS011;45703;50.898;6.054;2023-06-24T01:17:31;9.13;;;6.20;;
59824;SDS011;45703;50.898;6.054;2023-06-24T01:23:24;9.80;;;6.72;;
59824;SDS011;45703;50.898;6.054;2023-06-24T01:28:23;10.98;;;6.43;;
59824;SDS011;45703;50.898;6.054;2023-06-24T01:31:06;10.63;;;7.32;;
59824;SDS011;45703;50.898;6.054;2023-06-24T01:33:55;10.30;;;6.82;;
59824;SDS011;45703;50.898;6.054;2023-06-24T01:36:26;10.57;;;6.70;;
59824;SDS011;45703;50.898;6.054;2023-06-24T01:38:59;10.35;;;6.50;;
59824;SDS011;45703;50.898;6.054;2023-06-24T01:41:30;11.02;;;6.93;;
59824;SDS011;45703;50.898;6.054;2023-06-24T01:46:30;10.57;;;6.65;;
59824;SDS011;45703;50.898;6.054;2023-06-24T01:48:58;10.07;;;6.85;;
59824;SDS011;45703;50.898;6.054;2023-06-24T01:51:27;10.05;;;6.80;;
59824;SDS011;45703;50.898;6.054;2023-06-24T01:53:57;10.02;;;7.20;;
59824;SDS011;45703;50.898;6.054;2023-06-24T01:56:25;10.93;;;6.88;;
59824;SDS011;45703;50.898;6.054;2023-06-24T01:58:53;9.15;;;6.40;;
59824;SDS011;45703;50.898;6.054;2023-06-24T02:01:20;9.52;;;6.40;;
59824;SDS011;45703;50.898;6.054;2023-06-24T02:03:48;9.68;;;6.97;;
59824;SDS011;45703;50.898;6.054;2023-06-24T02:06:14;9.75;;;6.82;;
59824;SDS011;45703;50.898;6.054;2023-06-24T02:08:42;9.60;;;6.50;;
59824;SDS011;45703;50.898;6.054;2023-06-24T02:11:08;10.73;;;7.00;;
59824;SDS011;45703;50.898;6.054;2023-06-24T02:13:35;10.82;;;6.22;;
59824;SDS011;45703;50.898;6.054;2023-06-24T02:16:06;9.88;;;7.00;;
59824;SDS011;45703;50.898;6.054;2023-06-24T02:18:37;10.50;;;6.45;;
59824;SDS011;45703;50.898;6.054;2023-06-24T02:21:07;10.18;;;6.65;;
59824;SDS011;45703;50.898;6.054;2023-06-24T02:23:34;9.88;;;6.22;;
59824;SDS011;45703;50.898;6.054;2023-06-24T02:26:01;11.40;;;7.13;;
59824;SDS011;45703;50.898;6.054;2023-06-24T02:28:27;11.00;;;6.78;;
59824;SDS011;45703;50.898;6.054;2023-06-24T02:30:54;11.43;;;7.00;;
59824;SDS011;45703;50.898;6.054;2023-06-24T02:33:19;12.55;;;7.05;;
59824;SDS011;45703;50.898;6.054;2023-06-24T02:35:45;10.77;;;6.70;;
59824;SDS011;45703;50.898;6.054;2023-06-24T02:38:11;11.70;;;7.43;;
59824;SDS011;45703;50.898;6.054;2023-06-24T02:40:36;12.60;;;7.32;;
59824;SDS011;45703;50.898;6.054;2023-06-24T02:43:02;10.45;;;7.18;;
59824;SDS011;45703;50.898;6.054;2023-06-24T02:45:27;11.73;;;7.30;;
59824;SDS011;45703;50.898;6.054;2023-06-24T02:47:53;10.80;;;7.15;;
59824;SDS011;45703;50.898;6.054;2023-06-24T02:50:20;12.05;;;7.38;;
59824;SDS011;45703;50.898;6.054;2023-06-24T02:52:47;11.18;;;7.65;;
59824;SDS011;45703;50.898;6.054;2023-06-24T02:55:13;12.15;;;8.10;;
59824;SDS011;45703;50.898;6.054;2023-06-24T02:57:40;12.02;;;8.30;;
59824;SDS011;45703;50.898;6.054;2023-06-24T03:00:06;12.05;;;7.57;;
59824;SDS011;45703;50.898;6.054;2023-06-24T03:02:39;11.75;;;7.97;;
59824;SDS011;45703;50.898;6.054;2023-06-24T03:05:05;13.27;;;8.32;;
59824;SDS011;45703;50.898;6.054;2023-06-24T03:07:32;12.65;;;7.72;;
59824;SDS011;45703;50.898;6.054;2023-06-24T03:10:01;12.73;;;8.27;;
59824;SDS011;45703;50.898;6.054;2023-06-24T03:12:28;11.77;;;8.43;;
59824;SDS011;45703;50.898;6.054;2023-06-24T03:14:54;14.43;;;8.70;;
59824;SDS011;45703;50.898;6.054;2023-06-24T03:17:19;11.38;;;7.38;;
59824;SDS011;45703;50.898;6.054;2023-06-24T03:19:45;11.50;;;8.05;;
59824;SDS011;45703;50.898;6.054;2023-06-24T03:22:10;12.77;;;8.52;;
59824;SDS011;45703;50.898;6.054;2023-06-24T03:24:35;11.15;;;7.40;;
59824;SDS011;45703;50.898;6.054;2023-06-24T03:27:01;14.38;;;9.32;;
59824;SDS011;45703;50.898;6.054;2023-06-24T03:29:26;14.38;;;8.85;;
59824;SDS011;45703;50.898;6.054;2023-06-24T03:31:52;12.95;;;9.38;;
59824;SDS011;45703;50.898;6.054;2023-06-24T03:34:17;11.93;;;8.73;;
59824;SDS011;45703;50.898;6.054;2023-06-24T03:36:43;13.70;;;8.25;;
59824;SDS011;45703;50.898;6.054;2023-06-24T03:39:08;12.95;;;8.88;;
59824;SDS011;45703;50.898;6.054;2023-06-24T03:41:34;14.68;;;8.57;;
59824;SDS011;45703;50.898;6.054;2023-06-24T03:43:59;13.73;;;9.38;;
59824;SDS011;45703;50.898;6.054;2023-06-24T03:46:25;12.43;;;8.52;;
59824;SDS011;45703;50.898;6.054;2023-06-24T03:48:51;12.38;;;8.30;;
59824;SDS011;45703;50.898;6.054;2023-06-24T03:51:16;13.80;;;9.38;;
59824;SDS011;45703;50.898;6.054;2023-06-24T03:53:42;14.00;;;9.10;;
59824;SDS011;45703;50.898;6.054;2023-06-24T03:56:07;13.18;;;8.13;;
59824;SDS011;45703;50.898;6.054;2023-06-24T03:58:33;12.98;;;8.20;;
59824;SDS011;45703;50.898;6.054;2023-06-24T04:00:59;12.57;;;8.82;;
59824;SDS011;45703;50.898;6.054;2023-06-24T04:03:25;13.18;;;8.95;;
59824;SDS011;45703;50.898;6.054;2023-06-24T04:05:52;14.15;;;8.95;;
59824;SDS011;45703;50.898;6.054;2023-06-24T04:08:18;14.02;;;8.82;;
59824;SDS011;45703;50.898;6.054;2023-06-24T04:10:44;13.35;;;8.93;;
59824;SDS011;45703;50.898;6.054;2023-06-24T04:13:09;12.30;;;8.23;;
59824;SDS011;45703;50.898;6.054;2023-06-24T04:15:34;14.25;;;9.05;;
59824;SDS011;45703;50.898;6.054;2023-06-24T04:18:00;12.65;;;8.80;;
59824;SDS011;45703;50.898;6.054;2023-06-24T04:20:25;13.63;;;9.10;;
59824;SDS011;45703;50.898;6.054;2023-06-24T04:22:51;14.18;;;10.07;;
59824;SDS011;45703;50.898;6.054;2023-06-24T04:25:16;14.38;;;9.55;;
59824;SDS011;45703;50.898;6.054;2023-06-24T04:27:41;13.20;;;8.82;;
59824;SDS011;45703;50.898;6.054;2023-06-24T04:30:07;14.80;;;9.85;;
59824;SDS011;45703;50.898;6.054;2023-06-24T04:32:33;12.85;;;8.93;;
59824;SDS011;45703;50.898;6.054;2023-06-24T04:34:58;13.23;;;9.35;;
59824;SDS011;45703;50.898;6.054;2023-06-24T04:37:25;13.52;;;8.75;;
59824;SDS011;45703;50.898;6.054;2023-06-24T04:39:51;13.63;;;9.18;;
59824;SDS011;45703;50.898;6.054;2023-06-24T04:42:16;13.73;;;8.80;;
59824;SDS011;45703;50.898;6.054;2023-06-24T04:44:42;13.10;;;8.35;;
59824;SDS011;45703;50.898;6.054;2023-06-24T04:47:07;13.82;;;8.63;;
59824;SDS011;45703;50.898;6.054;2023-06-24T04:49:32;11.70;;;8.05;;
59824;SDS011;45703;50.898;6.054;2023-06-24T04:52:01;12.90;;;7.60;;
59824;SDS011;45703;50.898;6.054;2023-06-24T04:54:27;13.38;;;8.35;;
59824;SDS011;45703;50.898;6.054;2023-06-24T04:56:53;13.40;;;8.77;;
59824;SDS011;45703;50.898;6.054;2023-06-24T04:59:20;11.80;;;7.75;;
59824;SDS011;45703;50.898;6.054;2023-06-24T05:01:46;12.25;;;8.02;;
59824;SDS011;45703;50.898;6.054;2023-06-24T05:04:12;12.88;;;7.88;;
59824;SDS011;45703;50.898;6.054;2023-06-24T05:06:37;11.52;;;7.45;;
59824;SDS011;45703;50.898;6.054;2023-06-24T05:09:03;11.77;;;8.88;;
59824;SDS011;45703;50.898;6.054;2023-06-24T05:11:28;13.10;;;8.70;;
59824;SDS011;45703;50.898;6.054;2023-06-24T05:13:53;13.00;;;8.00;;
59824;SDS011;45703;50.898;6.054;2023-06-24T05:16:19;14.27;;;9.27;;
59824;SDS011;45703;50.898;6.054;2023-06-24T05:18:44;12.40;;;7.90;;
59824;SDS011;45703;50.898;6.054;2023-06-24T05:21:10;14.35;;;8.57;;
59824;SDS011;45703;50.898;6.054;2023-06-24T05:23:36;11.40;;;7.15;;
59824;SDS011;45703;50.898;6.054;2023-06-24T05:26:01;13.45;;;8.57;;
59824;SDS011;45703;50.898;6.054;2023-06-24T05:28:26;14.23;;;8.30;;
59824;SDS011;45703;50.898;6.054;2023-06-24T05:30:52;12.60;;;7.97;;
59824;SDS011;45703;50.898;6.054;2023-06-24T05:33:19;12.88;;;7.65;;
59824;SDS011;45703;50.898;6.054;2023-06-24T05:35:45;10.82;;;6.93;;
59824;SDS011;45703;50.898;6.054;2023-06-24T05:38:10;11.40;;;7.47;;
59824;SDS011;45703;50.898;6.054;2023-06-24T05:40:36;12.48;;;8.10;;
59824;SDS011;45703;50.898;6.054;2023-06-24T05:43:01;12.18;;;7.35;;
59824;SDS011;45703;50.898;6.054;2023-06-24T05:45:28;11.55;;;7.13;;
59824;SDS011;45703;50.898;6.054;2023-06-24T05:47:53;14.00;;;8.45;;
59824;SDS011;45703;50.898;6.054;2023-06-24T05:50:18;10.75;;;7.43;;
59824;SDS011;45703;50.898;6.054;2023-06-24T05:52:44;12.63;;;8.25;;
59824;SDS011;45703;50.898;6.054;2023-06-24T05:55:09;13.82;;;8.32;;
59824;SDS011;45703;50.898;6.054;2023-06-24T05:57:35;12.20;;;8.63;;
59824;SDS011;45703;50.898;6.054;2023-06-24T06:00:00;13.90;;;8.40;;
59824;SDS011;45703;50.898;6.054;2023-06-24T06:02:25;12.93;;;7.78;;
59824;SDS011;45703;50.898;6.054;2023-06-24T06:04:51;15.10;;;8.40;;
59824;SDS011;45703;50.898;6.054;2023-06-24T06:07:17;12.68;;;7.85;;
59824;SDS011;45703;50.898;6.054;2023-06-24T06:09:42;12.52;;;7.80;;
59824;SDS011;45703;50.898;6.054;2023-06-24T06:12:07;12.50;;;7.70;;
59824;SDS011;45703;50.898;6.054;2023-06-24T06:14:34;12.85;;;7.80;;
59824;SDS011;45703;50.898;6.054;2023-06-24T06:16:59;13.93;;;8.38;;
59824;SDS011;45703;50.898;6.054;2023-06-24T06:19:24;11.43;;;7.28;;
59824;SDS011;45703;50.898;6.054;2023-06-24T06:21:51;10.20;;;6.38;;
59824;SDS011;45703;50.898;6.054;2023-06-24T06:24:16;11.63;;;7.05;;
59824;SDS011;45703;50.898;6.054;2023-06-24T06:26:42;12.90;;;8.13;;
59824;SDS011;45703;50.898;6.054;2023-06-24T06:29:08;13.52;;;7.43;;
59824;SDS011;45703;50.898;6.054;2023-06-24T06:31:34;11.88;;;6.75;;
59824;SDS011;45703;50.898;6.054;2023-06-24T06:33:59;13.27;;;8.32;;
59824;SDS011;45703;50.898;6.054;2023-06-24T06:36:26;14.55;;;8.82;;
59824;SDS011;45703;50.898;6.054;2023-06-24T06:38:52;13.20;;;8.60;;
59824;SDS011;45703;50.898;6.054;2023-06-24T06:41:17;14.50;;;8.88;;
59824;SDS011;45703;50.898;6.054;2023-06-24T06:43:49;14.00;;;8.82;;
59824;SDS011;45703;50.898;6.054;2023-06-24T06:46:14;12.38;;;8.00;;
59824;SDS011;45703;50.898;6.054;2023-06-24T06:48:40;13.43;;;8.32;;
59824;SDS011;45703;50.898;6.054;2023-06-24T06:51:05;13.02;;;7.68;;
59824;SDS011;45703;50.898;6.054;2023-06-24T06:53:30;11.45;;;7.40;;
59824;SDS011;45703;50.898;6.054;2023-06-24T06:55:56;13.68;;;7.95;;
59824;SDS011;45703;50.898;6.054;2023-06-24T06:58:21;13.15;;;9.07;;
59824;SDS011;45703;50.898;6.054;2023-06-24T07:00:47;15.32;;;9.10;;
59824;SDS011;45703;50.898;6.054;2023-06-24T07:03:12;12.65;;;8.55;;
59824;SDS011;45703;50.898;6.054;2023-06-24T07:05:38;14.52;;;8.13;;
59824;SDS011;45703;50.898;6.054;2023-06-24T07:08:05;11.93;;;7.60;;
59824;SDS011;45703;50.898;6.054;2023-06-24T07:10:30;13.38;;;7.82;;
59824;SDS011;45703;50.898;6.054;2023-06-24T07:12:55;13.30;;;8.05;;
59824;SDS011;45703;50.898;6.054;2023-06-24T07:15:23;14.48;;;8.25;;
59824;SDS011;45703;50.898;6.054;2023-06-24T07:17:50;13.93;;;7.80;;
59824;SDS011;45703;50.898;6.054;2023-06-24T07:20:15;12.25;;;7.50;;
59824;SDS011;45703;50.898;6.054;2023-06-24T07:22:40;12.10;;;7.50;;
59824;SDS011;45703;50.898;6.054;2023-06-24T07:25:06;13.63;;;8.02;;
59824;SDS011;45703;50.898;6.054;2023-06-24T07:27:31;15.02;;;8.60;;
59824;SDS011;45703;50.898;6.054;2023-06-24T07:29:57;13.23;;;8.13;;
59824;SDS011;45703;50.898;6.054;2023-06-24T07:32:22;15.05;;;8.63;;
59824;SDS011;45703;50.898;6.054;2023-06-24T07:34:47;14.27;;;8.82;;
59824;SDS011;45703;50.898;6.054;2023-06-24T07:37:13;13.85;;;8.35;;
59824;SDS011;45703;50.898;6.054;2023-06-24T07:39:38;14.93;;;8.18;;
59824;SDS011;45703;50.898;6.054;2023-06-24T07:42:03;14.93;;;8.95;;
59824;SDS011;45703;50.898;6.054;2023-06-24T07:44:29;16.73;;;9.65;;
59824;SDS011;45703;50.898;6.054;2023-06-24T07:46:54;16.52;;;10.07;;
59824;SDS011;45703;50.898;6.054;2023-06-24T07:49:20;17.42;;;9.48;;
59824;SDS011;45703;50.898;6.054;2023-06-24T07:51:45;15.82;;;9.23;;
59824;SDS011;45703;50.898;6.054;2023-06-24T07:54:11;14.32;;;8.98;;
59824;SDS011;45703;50.898;6.054;2023-06-24T07:56:36;13.05;;;7.68;;
59824;SDS011;45703;50.898;6.054;2023-06-24T07:59:02;14.82;;;8.27;;
59824;SDS011;45703;50.898;6.054;2023-06-24T08:01:28;14.57;;;8.00;;
59824;SDS011;45703;50.898;6.054;2023-06-24T08:03:53;14.35;;;8.43;;
59824;SDS011;45703;50.898;6.054;2023-06-24T08:06:18;10.55;;;5.78;;
59824;SDS011;45703;50.898;6.054;2023-06-24T08:08:45;10.45;;;5.38;;
59824;SDS011;45703;50.898;6.054;2023-06-24T08:11:11;9.15;;;4.95;;
59824;SDS011;45703;50.898;6.054;2023-06-24T08:13:38;10.73;;;5.10;;
59824;SDS011;45703;50.898;6.054;2023-06-24T08:16:03;9.93;;;4.43;;
59824;SDS011;45703;50.898;6.054;2023-06-24T08:18:29;8.80;;;4.35;;
59824;SDS011;45703;50.898;6.054;2023-06-24T08:20:54;8.20;;;4.32;;
59824;SDS011;45703;50.898;6.054;2023-06-24T08:23:20;9.52;;;3.90;;
59824;SDS011;45703;50.898;6.054;2023-06-24T08:25:45;7.88;;;3.38;;
59824;SDS011;45703;50.898;6.054;2023-06-24T08:28:10;7.50;;;3.67;;
59824;SDS011;45703;50.898;6.054;2023-06-24T08:30:36;7.40;;;3.63;;
59824;SDS011;45703;50.898;6.054;2023-06-24T08:33:01;8.43;;;3.60;;
59824;SDS011;45703;50.898;6.054;2023-06-24T08:35:26;7.20;;;3.50;;
59824;SDS011;45703;50.898;6.054;2023-06-24T08:37:52;7.50;;;3.28;;
59824;SDS011;45703;50.898;6.054;2023-06-24T08:40:17;6.85;;;3.20;;
59824;SDS011;45703;50.898;6.054;2023-06-24T08:42:43;8.23;;;3.47;;
59824;SDS011;45703;50.898;6.054;2023-06-24T08:45:09;7.13;;;3.30;;
59824;SDS011;45703;50.898;6.054;2023-06-24T08:47:34;6.70;;;3.03;;
59824;SDS011;45703;50.898;6.054;2023-06-24T08:50:04;7.10;;;3.22;;
59824;SDS011;45703;50.898;6.054;2023-06-24T08:52:35;7.68;;;3.15;;
59824;SDS011;45703;50.898;6.054;2023-06-24T08:55:01;7.30;;;3.35;;
59824;SDS011;45703;50.898;6.054;2023-06-24T08:57:27;7.15;;;3.45;;
59824;SDS011;45703;50.898;6.054;2023-06-24T08:59:53;9.00;;;3.65;;
59824;SDS011;45703;50.898;6.054;2023-06-24T09:02:19;8.52;;;3.45;;
59824;SDS011;45703;50.898;6.054;2023-06-24T09:04:44;8.73;;;4.10;;
59824;SDS011;45703;50.898;6.054;2023-06-24T09:07:10;7.70;;;3.53;;
59824;SDS011;45703;50.898;6.054;2023-06-24T09:09:43;9.38;;;3.67;;
59824;SDS011;45703;50.898;6.054;2023-06-24T09:12:13;8.35;;;3.33;;
59824;SDS011;45703;50.898;6.054;2023-06-24T09:14:39;7.28;;;3.25;;
59824;SDS011;45703;50.898;6.054;2023-06-24T09:17:05;9.88;;;3.92;;
59824;SDS011;45703;50.898;6.054;2023-06-24T09:19:31;7.72;;;3.28;;
59824;SDS011;45703;50.898;6.054;2023-06-24T09:24:29;8.77;;;4.28;;
59824;SDS011;45703;50.898;6.054;2023-06-24T09:26:55;7.75;;;3.72;;
59824;SDS011;45703;50.898;6.054;2023-06-24T09:29:25;7.65;;;3.30;;
59824;SDS011;45703;50.898;6.054;2023-06-24T09:31:56;7.80;;;3.72;;
59824;SDS011;45703;50.898;6.054;2023-06-24T09:34:23;9.38;;;3.63;;
59824;SDS011;45703;50.898;6.054;2023-06-24T09:36:52;7.40;;;3.60;;
59824;SDS011;45703;50.898;6.054;2023-06-24T09:39:19;8.68;;;3.78;;
59824;SDS011;45703;50.898;6.054;2023-06-24T09:41:50;8.02;;;3.47;;
59824;SDS011;45703;50.898;6.054;2023-06-24T09:44:16;8.15;;;4.05;;
59824;SDS011;45703;50.898;6.054;2023-06-24T09:46:44;8.88;;;3.80;;
59824;SDS011;45703;50.898;6.054;2023-06-24T09:49:09;7.32;;;3.03;;
59824;SDS011;45703;50.898;6.054;2023-06-24T09:51:39;7.45;;;2.80;;
59824;SDS011;45703;50.898;6.054;2023-06-24T09:54:08;7.68;;;3.58;;
59824;SDS011;45703;50.898;6.054;2023-06-24T09:56:39;6.43;;;2.88;;
59824;SDS011;45703;50.898;6.054;2023-06-24T09:59:08;7.97;;;3.47;;
59824;SDS011;45703;50.898;6.054;2023-06-24T10:01:35;7.15;;;3.40;;
59824;SDS011;45703;50.898;6.054;2023-06-24T10:04:03;7.43;;;3.38;;
59824;SDS011;45703;50.898;6.054;2023-06-24T10:06:30;8.13;;;3.42;;
59824;SDS011;45703;50.898;6.054;2023-06-24T10:08:57;8.50;;;3.28;;
59824;SDS011;45703;50.898;6.054;2023-06-24T10:11:23;7.60;;;3.00;;
59824;SDS011;45703;50.898;6.054;2023-06-24T10:13:49;6.88;;;2.83;;
59824;SDS011;45703;50.898;6.054;2023-06-24T10:16:16;6.53;;;2.60;;
59824;SDS011;45703;50.898;6.054;2023-06-24T10:18:43;6.38;;;2.65;;
59824;SDS011;45703;50.898;6.054;2023-06-24T10:21:10;7.53;;;2.92;;
59824;SDS011;45703;50.898;6.054;2023-06-24T10:26:10;6.38;;;2.42;;
59824;SDS011;45703;50.898;6.054;2023-06-24T10:37:04;5.65;;;2.20;;
59824;SDS011;45703;50.898;6.054;2023-06-24T10:39:42;6.93;;;2.60;;
59824;SDS011;45703;50.898;6.054;2023-06-24T10:44:56;6.97;;;2.30;;
59824;SDS011;45703;50.898;6.054;2023-06-24T10:49:51;6.05;;;2.17;;
59824;SDS011;45703;50.898;6.054;2023-06-24T10:52:18;6.80;;;1.80;;
59824;SDS011;45703;50.898;6.054;2023-06-24T10:54:47;5.97;;;2.10;;
59824;SDS011;45703;50.898;6.054;2023-06-24T10:57:14;5.95;;;1.75;;
59824;SDS011;45703;50.898;6.054;2023-06-24T10:59:40;5.63;;;2.05;;
59824;SDS011;45703;50.898;6.054;2023-06-24T11:02:09;6.90;;;2.10;;
59824;SDS011;45703;50.898;6.054;2023-06-24T11:04:54;5.95;;;2.00;;
59824;SDS011;45703;50.898;6.054;2023-06-24T11:07:20;5.93;;;2.00;;
59824;SDS011;45703;50.898;6.054;2023-06-24T11:09:54;5.93;;;2.08;;
59824;SDS011;45703;50.898;6.054;2023-06-24T11:12:25;6.43;;;2.00;;
59824;SDS011;45703;50.898;6.054;2023-06-24T11:17:21;7.00;;;1.80;;
59824;SDS011;45703;50.898;6.054;2023-06-24T11:19:47;5.75;;;1.90;;
59824;SDS011;45703;50.898;6.054;2023-06-24T11:22:13;6.32;;;2.17;;
59824;SDS011;45703;50.898;6.054;2023-06-24T11:24:38;5.65;;;2.08;;
59824;SDS011;45703;50.898;6.054;2023-06-24T11:27:06;6.35;;;2.40;;
59824;SDS011;45703;50.898;6.054;2023-06-24T11:29:32;5.28;;;1.88;;
59824;SDS011;45703;50.898;6.054;2023-06-24T11:32:00;5.40;;;1.90;;
59824;SDS011;45703;50.898;6.054;2023-06-24T11:34:26;6.70;;;2.05;;
59824;SDS011;45703;50.898;6.054;2023-06-24T11:37:30;5.68;;;1.80;;
59824;SDS011;45703;50.898;6.054;2023-06-24T11:39:44;5.32;;;1.75;;
59824;SDS011;45703;50.898;6.054;2023-06-24T11:42:25;6.10;;;1.75;;
59824;SDS011;45703;50.898;6.054;2023-06-24T11:44:50;5.68;;;1.70;;
59824;SDS011;45703;50.898;6.054;2023-06-24T11:47:33;4.93;;;1.55;;
59824;SDS011;45703;50.898;6.054;2023-06-24T11:49:59;5.30;;;1.60;;
59824;SDS011;45703;50.898;6.054;2023-06-24T11:55:24;5.35;;;1.60;;
59824;SDS011;45703;50.898;6.054;2023-06-24T11:57:54;5.25;;;1.50;;
59824;SDS011;45703;50.898;6.054;2023-06-24T12:00:21;5.03;;;1.30;;
59824;SDS011;45703;50.898;6.054;2023-06-24T12:02:54;5.60;;;1.67;;
59824;SDS011;45703;50.898;6.054;2023-06-24T12:05:27;5.88;;;1.67;;
59824;SDS011;45703;50.898;6.054;2023-06-24T12:07:56;5.03;;;1.40;;
59824;SDS011;45703;50.898;6.054;2023-06-24T12:10:40;6.57;;;1.70;;
59824;SDS011;45703;50.898;6.054;2023-06-24T12:13:06;5.40;;;1.60;;
59824;SDS011;45703;50.898;6.054;2023-06-24T12:15:33;4.80;;;1.40;;
59824;SDS011;45703;50.898;6.054;2023-06-24T12:17:59;4.97;;;1.55;;
59824;SDS011;45703;50.898;6.054;2023-06-24T12:20:26;4.38;;;1.30;;
59824;SDS011;45703;50.898;6.054;2023-06-24T12:22:53;4.53;;;1.35;;
59824;SDS011;45703;50.898;6.054;2023-06-24T12:25:18;5.60;;;1.50;;
59824;SDS011;45703;50.898;6.054;2023-06-24T12:27:44;5.00;;;1.52;;
59824;SDS011;45703;50.898;6.054;2023-06-24T12:30:11;5.25;;;1.58;;
59824;SDS011;45703;50.898;6.054;2023-06-24T12:32:37;5.30;;;1.60;;
59824;SDS011;45703;50.898;6.054;2023-06-24T12:35:03;5.85;;;1.83;;
59824;SDS011;45703;50.898;6.054;2023-06-24T12:37:32;4.93;;;1.40;;
59824;SDS011;45703;50.898;6.054;2023-06-24T12:39:59;5.35;;;1.65;;
59824;SDS011;45703;50.898;6.054;2023-06-24T12:42:28;5.68;;;1.85;;
59824;SDS011;45703;50.898;6.054;2023-06-24T12:44:53;5.28;;;1.70;;
59824;SDS011;45703;50.898;6.054;2023-06-24T12:47:19;5.25;;;1.58;;
59824;SDS011;45703;50.898;6.054;2023-06-24T12:49:45;5.25;;;1.55;;
59824;SDS011;45703;50.898;6.054;2023-06-24T12:52:11;4.78;;;1.30;;
59824;SDS011;45703;50.898;6.054;2023-06-24T12:54:38;4.55;;;1.27;;
59824;SDS011;45703;50.898;6.054;2023-06-24T12:57:03;4.88;;;1.27;;
59824;SDS011;45703;50.898;6.054;2023-06-24T12:59:29;5.55;;;1.50;;
59824;SDS011;45703;50.898;6.054;2023-06-24T13:01:54;4.75;;;1.60;;
59824;SDS011;45703;50.898;6.054;2023-06-24T13:04:19;6.05;;;1.65;;
59824;SDS011;45703;50.898;6.054;2023-06-24T13:06:47;4.65;;;1.30;;
59824;SDS011;45703;50.898;6.054;2023-06-24T13:09:14;4.97;;;1.50;;
59824;SDS011;45703;50.898;6.054;2023-06-24T13:11:40;5.65;;;1.60;;
59824;SDS011;45703;50.898;6.054;2023-06-24T13:14:05;4.88;;;1.40;;
59824;SDS011;45703;50.898;6.054;2023-06-24T13:16:31;5.57;;;1.70;;
59824;SDS011;45703;50.898;6.054;2023-06-24T13:18:56;5.38;;;1.45;;
59824;SDS011;45703;50.898;6.054;2023-06-24T13:21:22;5.18;;;1.60;;
59824;SDS011;45703;50.898;6.054;2023-06-24T13:23:48;5.60;;;1.33;;
59824;SDS011;45703;50.898;6.054;2023-06-24T13:26:13;4.57;;;1.48;;
59824;SDS011;45703;50.898;6.054;2023-06-24T13:28:39;4.57;;;1.20;;
59824;SDS011;45703;50.898;6.054;2023-06-24T13:31:05;5.30;;;1.55;;
59824;SDS011;45703;50.898;6.054;2023-06-24T13:33:31;4.93;;;1.40;;
59824;SDS011;45703;50.898;6.054;2023-06-24T13:35:56;4.57;;;1.27;;
59824;SDS011;45703;50.898;6.054;2023-06-24T13:38:22;6.28;;;1.63;;
59824;SDS011;45703;50.898;6.054;2023-06-24T13:40:47;5.18;;;1.50;;
59824;SDS011;45703;50.898;6.054;2023-06-24T13:43:13;5.70;;;1.92;;
59824;SDS011;45703;50.898;6.054;2023-06-24T13:45:38;4.82;;;1.40;;
59824;SDS011;45703;50.898;6.054;2023-06-24T13:48:04;5.70;;;1.50;;
59824;SDS011;45703;50.898;6.054;2023-06-24T13:50:29;5.13;;;1.45;;
59824;SDS011;45703;50.898;6.054;2023-06-24T13:52:55;6.97;;;1.60;;
59824;SDS011;45703;50.898;6.054;2023-06-24T13:55:20;4.63;;;1.35;;
59824;SDS011;45703;50.898;6.054;2023-06-24T13:57:46;7.90;;;1.50;;
59824;SDS011;45703;50.898;6.054;2023-06-24T14:00:12;5.68;;;1.55;;
59824;SDS011;45703;50.898;6.054;2023-06-24T14:02:38;5.32;;;1.45;;
59824;SDS011;45703;50.898;6.054;2023-06-24T14:05:04;5.20;;;1.40;;
59824;SDS011;45703;50.898;6.054;2023-06-24T14:07:30;5.47;;;1.42;;
59824;SDS011;45703;50.898;6.054;2023-06-24T14:09:56;5.22;;;1.55;;
59824;SDS011;45703;50.898;6.054;2023-06-24T14:12:21;5.35;;;1.63;;
59824;SDS011;45703;50.898;6.054;2023-06-24T14:14:46;5.13;;;1.60;;
59824;SDS011;45703;50.898;6.054;2023-06-24T14:17:12;5.75;;;1.67;;
59824;SDS011;45703;50.898;6.054;2023-06-24T14:19:40;5.93;;;1.70;;
59824;SDS011;45703;50.898;6.054;2023-06-24T14:22:06;5.72;;;1.90;;
59824;SDS011;45703;50.898;6.054;2023-06-24T14:24:32;5.40;;;1.63;;
59824;SDS011;45703;50.898;6.054;2023-06-24T14:26:58;5.43;;;1.60;;
59824;SDS011;45703;50.898;6.054;2023-06-24T14:29:24;4.45;;;1.38;;
59824;SDS011;45703;50.898;6.054;2023-06-24T14:31:50;6.05;;;1.70;;
59824;SDS011;45703;50.898;6.054;2023-06-24T14:34:16;5.78;;;1.67;;
59824;SDS011;45703;50.898;6.054;2023-06-24T14:36:41;4.95;;;1.55;;
59824;SDS011;45703;50.898;6.054;2023-06-24T14:39:06;5.97;;;1.90;;
59824;SDS011;45703;50.898;6.054;2023-06-24T14:41:32;4.78;;;1.52;;
59824;SDS011;45703;50.898;6.054;2023-06-24T14:43:57;5.25;;;1.50;;
59824;SDS011;45703;50.898;6.054;2023-06-24T14:46:23;5.40;;;1.60;;
59824;SDS011;45703;50.898;6.054;2023-06-24T14:48:48;5.50;;;1.80;;
59824;SDS011;45703;50.898;6.054;2023-06-24T14:51:14;5.97;;;2.15;;
59824;SDS011;45703;50.898;6.054;2023-06-24T14:53:39;7.13;;;4.65;;
59824;SDS011;45703;50.898;6.054;2023-06-24T14:56:05;6.38;;;3.10;;
59824;SDS011;45703;50.898;6.054;2023-06-24T14:58:30;6.13;;;2.45;;
59824;SDS011;45703;50.898;6.054;2023-06-24T15:00:56;6.68;;;2.08;;
59824;SDS011;45703;50.898;6.054;2023-06-24T15:03:21;5.55;;;1.65;;
59824;SDS011;45703;50.898;6.054;2023-06-24T15:05:46;6.00;;;2.08;;
59824;SDS011;45703;50.898;6.054;2023-06-24T15:08:12;5.43;;;1.88;;
59824;SDS011;45703;50.898;6.054;2023-06-24T15:10:40;4.80;;;1.58;;